TAF LFKF
AMD LFKF 082130Z 0821/0915 CNL=
METAR LFKF
LFKF 082230Z AUTO 25009KT 9999 FEW064/// SCT100/// BKN150/// ///CB 08/06 Q1002=
LFKF 082200Z AUTO 30016KT 270V340 9999 -RA SCT035/// BKN049/// BKN058/// ///CB 09/05 Q1003=
LFKF 082130Z AUTO 29016G29KT 260V320 9999 -RA FEW029/// BKN038/// BKN054/// ///CB 08/05 Q1003 TEMPO 26014KT 2000 TSRA BKN014 SCT025CB BKN050=
LFKF 082100Z AUTO 27013KT 9999 FEW043/// BKN058/// BKN078/// ///CB 10/05 Q1002 TEMPO 2000 TSRA BKN014 SCT025CB BKN050=
LFKF 082030Z AUTO 27015KT 9999 FEW038 BKN052 OVC150 11/06 Q1002 TEMPO 2000 TSRA BKN014 SCT025CB BKN050=
WC LFKF
WS LFKF
WV LFKF